sensor_id;sensor_type;location;lat;lon;timestamp;P1;durP1;ratioP1;P2;durP2;ratioP2
27857;SDS011;16852;51.446;6.528;2024-02-14T00:01:30;3.33;;;1.40;;
27857;SDS011;16852;51.446;6.528;2024-02-14T00:03:30;3.13;;;1.55;;
27857;SDS011;16852;51.446;6.528;2024-02-14T00:05:31;2.78;;;1.02;;
27857;SDS011;16852;51.446;6.528;2024-02-14T00:07:32;3.03;;;1.10;;
27857;SDS011;16852;51.446;6.528;2024-02-14T00:09:32;2.33;;;1.42;;
27857;SDS011;16852;51.446;6.528;2024-02-14T00:11:33;3.13;;;1.25;;
27857;SDS011;16852;51.446;6.528;2024-02-14T00:13:33;1.70;;;1.10;;
27857;SDS011;16852;51.446;6.528;2024-02-14T00:15:34;4.18;;;1.55;;
27857;SDS011;16852;51.446;6.528;2024-02-14T00:17:35;3.15;;;1.20;;
27857;SDS011;16852;51.446;6.528;2024-02-14T00:19:35;2.15;;;1.02;;
27857;SDS011;16852;51.446;6.528;2024-02-14T00:21:36;3.65;;;1.33;;
27857;SDS011;16852;51.446;6.528;2024-02-14T00:23:38;1.60;;;1.00;;
27857;SDS011;16852;51.446;6.528;2024-02-14T00:25:38;2.42;;;1.35;;
27857;SDS011;16852;51.446;6.528;2024-02-14T00:27:39;2.33;;;1.27;;
27857;SDS011;16852;51.446;6.528;2024-02-14T00:29:41;2.28;;;1.38;;
27857;SDS011;16852;51.446;6.528;2024-02-14T00:31:44;1.77;;;1.05;;
27857;SDS011;16852;51.446;6.528;2024-02-14T00:33:45;2.05;;;1.10;;
27857;SDS011;16852;51.446;6.528;2024-02-14T00:35:46;3.78;;;1.50;;
27857;SDS011;16852;51.446;6.528;2024-02-14T00:37:46;4.97;;;1.13;;
27857;SDS011;16852;51.446;6.528;2024-02-14T00:39:47;1.95;;;1.15;;
27857;SDS011;16852;51.446;6.528;2024-02-14T00:43:52;2.43;;;1.10;;
27857;SDS011;16852;51.446;6.528;2024-02-14T00:45:53;1.30;;;0.90;;
27857;SDS011;16852;51.446;6.528;2024-02-14T00:47:53;2.65;;;0.98;;
27857;SDS011;16852;51.446;6.528;2024-02-14T00:49:54;3.72;;;1.35;;
27857;SDS011;16852;51.446;6.528;2024-02-14T00:51:54;1.80;;;1.15;;
27857;SDS011;16852;51.446;6.528;2024-02-14T00:53:55;2.05;;;1.00;;
27857;SDS011;16852;51.446;6.528;2024-02-14T00:55:56;2.38;;;1.20;;
27857;SDS011;16852;51.446;6.528;2024-02-14T00:57:56;1.52;;;0.98;;
27857;SDS011;16852;51.446;6.528;2024-02-14T00:59:57;3.67;;;1.05;;
27857;SDS011;16852;51.446;6.528;2024-02-14T01:01:57;2.50;;;1.17;;
27857;SDS011;16852;51.446;6.528;2024-02-14T01:03:59;2.15;;;1.10;;
27857;SDS011;16852;51.446;6.528;2024-02-14T01:05:59;1.45;;;0.98;;
27857;SDS011;16852;51.446;6.528;2024-02-14T01:08:00;2.08;;;1.27;;
27857;SDS011;16852;51.446;6.528;2024-02-14T01:10:01;2.00;;;0.90;;
27857;SDS011;16852;51.446;6.528;2024-02-14T01:12:02;3.92;;;1.20;;
27857;SDS011;16852;51.446;6.528;2024-02-14T01:14:03;3.67;;;1.63;;
27857;SDS011;16852;51.446;6.528;2024-02-14T01:16:04;2.88;;;1.38;;
27857;SDS011;16852;51.446;6.528;2024-02-14T01:18:05;2.95;;;1.48;;
27857;SDS011;16852;51.446;6.528;2024-02-14T01:20:06;3.45;;;1.10;;
27857;SDS011;16852;51.446;6.528;2024-02-14T01:22:10;2.95;;;1.20;;
27857;SDS011;16852;51.446;6.528;2024-02-14T01:24:11;2.55;;;1.00;;
27857;SDS011;16852;51.446;6.528;2024-02-14T01:26:12;1.35;;;0.95;;
27857;SDS011;16852;51.446;6.528;2024-02-14T01:28:12;1.80;;;1.20;;
27857;SDS011;16852;51.446;6.528;2024-02-14T01:30:13;3.53;;;1.52;;
27857;SDS011;16852;51.446;6.528;2024-02-14T01:32:14;2.42;;;1.20;;
27857;SDS011;16852;51.446;6.528;2024-02-14T01:34:15;2.08;;;1.42;;
27857;SDS011;16852;51.446;6.528;2024-02-14T01:36:16;2.65;;;1.20;;
27857;SDS011;16852;51.446;6.528;2024-02-14T01:38:16;1.88;;;1.20;;
27857;SDS011;16852;51.446;6.528;2024-02-14T01:40:17;2.03;;;1.10;;
27857;SDS011;16852;51.446;6.528;2024-02-14T01:42:17;1.65;;;1.30;;
27857;SDS011;16852;51.446;6.528;2024-02-14T01:44:18;1.73;;;1.15;;
27857;SDS011;16852;51.446;6.528;2024-02-14T01:46:20;1.85;;;1.17;;
27857;SDS011;16852;51.446;6.528;2024-02-14T01:48:21;2.45;;;1.13;;
27857;SDS011;16852;51.446;6.528;2024-02-14T01:50:21;3.22;;;1.27;;
27857;SDS011;16852;51.446;6.528;2024-02-14T01:52:28;1.63;;;0.88;;
27857;SDS011;16852;51.446;6.528;2024-02-14T01:54:29;2.63;;;1.50;;
27857;SDS011;16852;51.446;6.528;2024-02-14T01:56:30;2.53;;;1.02;;
27857;SDS011;16852;51.446;6.528;2024-02-14T01:58:31;4.88;;;1.65;;
27857;SDS011;16852;51.446;6.528;2024-02-14T02:00:34;2.45;;;1.40;;
27857;SDS011;16852;51.446;6.528;2024-02-14T02:02:35;3.08;;;1.23;;
27857;SDS011;16852;51.446;6.528;2024-02-14T02:04:39;1.95;;;1.25;;
27857;SDS011;16852;51.446;6.528;2024-02-14T02:06:40;4.18;;;1.25;;
27857;SDS011;16852;51.446;6.528;2024-02-14T02:08:44;2.45;;;1.35;;
27857;SDS011;16852;51.446;6.528;2024-02-14T02:10:45;3.05;;;1.48;;
27857;SDS011;16852;51.446;6.528;2024-02-14T02:12:46;2.03;;;1.13;;
27857;SDS011;16852;51.446;6.528;2024-02-14T02:14:47;3.40;;;1.42;;
27857;SDS011;16852;51.446;6.528;2024-02-14T02:16:47;3.03;;;1.30;;
27857;SDS011;16852;51.446;6.528;2024-02-14T02:18:49;3.53;;;1.33;;
27857;SDS011;16852;51.446;6.528;2024-02-14T02:20:50;3.58;;;1.20;;
27857;SDS011;16852;51.446;6.528;2024-02-14T02:22:50;1.98;;;1.00;;
27857;SDS011;16852;51.446;6.528;2024-02-14T02:24:51;1.63;;;1.10;;
27857;SDS011;16852;51.446;6.528;2024-02-14T02:26:51;1.65;;;1.13;;
27857;SDS011;16852;51.446;6.528;2024-02-14T02:28:52;1.70;;;1.23;;
27857;SDS011;16852;51.446;6.528;2024-02-14T02:30:52;3.30;;;1.20;;
27857;SDS011;16852;51.446;6.528;2024-02-14T02:32:55;3.58;;;1.40;;
27857;SDS011;16852;51.446;6.528;2024-02-14T02:34:56;3.63;;;1.10;;
27857;SDS011;16852;51.446;6.528;2024-02-14T02:36:58;2.10;;;1.30;;
27857;SDS011;16852;51.446;6.528;2024-02-14T02:38:58;3.10;;;1.65;;
27857;SDS011;16852;51.446;6.528;2024-02-14T02:41:00;1.98;;;1.13;;
27857;SDS011;16852;51.446;6.528;2024-02-14T02:43:00;3.70;;;1.50;;
27857;SDS011;16852;51.446;6.528;2024-02-14T02:45:01;3.05;;;1.33;;
27857;SDS011;16852;51.446;6.528;2024-02-14T02:47:05;2.05;;;1.13;;
27857;SDS011;16852;51.446;6.528;2024-02-14T02:49:06;1.88;;;1.20;;
27857;SDS011;16852;51.446;6.528;2024-02-14T02:51:06;2.05;;;1.30;;
27857;SDS011;16852;51.446;6.528;2024-02-14T02:53:07;1.40;;;1.13;;
27857;SDS011;16852;51.446;6.528;2024-02-14T02:55:07;3.88;;;1.70;;
27857;SDS011;16852;51.446;6.528;2024-02-14T02:57:08;3.10;;;1.50;;
27857;SDS011;16852;51.446;6.528;2024-02-14T02:59:10;2.50;;;1.60;;
27857;SDS011;16852;51.446;6.528;2024-02-14T03:01:11;4.25;;;1.60;;
27857;SDS011;16852;51.446;6.528;2024-02-14T03:03:12;1.98;;;1.52;;
27857;SDS011;16852;51.446;6.528;2024-02-14T03:05:13;4.22;;;1.60;;
27857;SDS011;16852;51.446;6.528;2024-02-14T03:07:18;2.70;;;1.55;;
27857;SDS011;16852;51.446;6.528;2024-02-14T03:09:19;2.55;;;1.52;;
27857;SDS011;16852;51.446;6.528;2024-02-14T03:11:20;2.08;;;1.38;;
27857;SDS011;16852;51.446;6.528;2024-02-14T03:13:21;3.03;;;1.45;;
27857;SDS011;16852;51.446;6.528;2024-02-14T03:15:21;2.58;;;1.35;;
27857;SDS011;16852;51.446;6.528;2024-02-14T03:17:25;2.28;;;1.40;;
27857;SDS011;16852;51.446;6.528;2024-02-14T03:19:25;3.38;;;1.60;;
27857;SDS011;16852;51.446;6.528;2024-02-14T03:21:30;4.32;;;1.60;;
27857;SDS011;16852;51.446;6.528;2024-02-14T03:23:32;3.85;;;1.60;;
27857;SDS011;16852;51.446;6.528;2024-02-14T03:25:33;2.47;;;1.33;;
27857;SDS011;16852;51.446;6.528;2024-02-14T03:27:36;3.63;;;1.45;;
27857;SDS011;16852;51.446;6.528;2024-02-14T03:29:37;4.10;;;1.40;;
27857;SDS011;16852;51.446;6.528;2024-02-14T03:31:39;5.07;;;1.40;;
27857;SDS011;16852;51.446;6.528;2024-02-14T03:33:39;2.25;;;1.27;;
27857;SDS011;16852;51.446;6.528;2024-02-14T03:35:40;2.60;;;1.60;;
27857;SDS011;16852;51.446;6.528;2024-02-14T03:37:45;3.17;;;1.58;;
27857;SDS011;16852;51.446;6.528;2024-02-14T03:39:48;2.63;;;1.63;;
27857;SDS011;16852;51.446;6.528;2024-02-14T03:41:49;4.32;;;2.00;;
27857;SDS011;16852;51.446;6.528;2024-02-14T03:43:49;4.80;;;1.77;;
27857;SDS011;16852;51.446;6.528;2024-02-14T03:45:51;2.25;;;1.60;;
27857;SDS011;16852;51.446;6.528;2024-02-14T03:47:52;2.95;;;1.65;;
27857;SDS011;16852;51.446;6.528;2024-02-14T03:49:52;3.05;;;2.13;;
27857;SDS011;16852;51.446;6.528;2024-02-14T03:51:53;2.95;;;1.60;;
27857;SDS011;16852;51.446;6.528;2024-02-14T03:53:54;2.38;;;1.63;;
27857;SDS011;16852;51.446;6.528;2024-02-14T03:55:55;3.03;;;1.60;;
27857;SDS011;16852;51.446;6.528;2024-02-14T03:57:55;2.92;;;1.77;;
27857;SDS011;16852;51.446;6.528;2024-02-14T03:59:58;4.18;;;1.80;;
27857;SDS011;16852;51.446;6.528;2024-02-14T04:02:01;3.42;;;1.80;;
27857;SDS011;16852;51.446;6.528;2024-02-14T04:04:02;4.13;;;1.58;;
27857;SDS011;16852;51.446;6.528;2024-02-14T04:06:02;3.50;;;1.77;;
27857;SDS011;16852;51.446;6.528;2024-02-14T04:08:03;2.80;;;1.60;;
27857;SDS011;16852;51.446;6.528;2024-02-14T04:10:04;3.90;;;1.83;;
27857;SDS011;16852;51.446;6.528;2024-02-14T04:12:06;2.22;;;1.73;;
27857;SDS011;16852;51.446;6.528;2024-02-14T04:14:07;2.58;;;1.70;;
27857;SDS011;16852;51.446;6.528;2024-02-14T04:16:07;2.83;;;1.60;;
27857;SDS011;16852;51.446;6.528;2024-02-14T04:18:08;2.38;;;1.48;;
27857;SDS011;16852;51.446;6.528;2024-02-14T04:20:09;4.07;;;2.05;;
27857;SDS011;16852;51.446;6.528;2024-02-14T04:22:10;3.63;;;1.58;;
27857;SDS011;16852;51.446;6.528;2024-02-14T04:24:10;3.40;;;1.92;;
27857;SDS011;16852;51.446;6.528;2024-02-14T04:26:18;3.72;;;1.80;;
27857;SDS011;16852;51.446;6.528;2024-02-14T04:28:20;2.67;;;1.58;;
27857;SDS011;16852;51.446;6.528;2024-02-14T04:30:20;3.42;;;1.90;;
27857;SDS011;16852;51.446;6.528;2024-02-14T04:32:21;3.20;;;2.05;;
27857;SDS011;16852;51.446;6.528;2024-02-14T04:34:23;5.00;;;1.73;;
27857;SDS011;16852;51.446;6.528;2024-02-14T04:36:23;4.57;;;2.22;;
27857;SDS011;16852;51.446;6.528;2024-02-14T04:38:24;9.38;;;1.70;;
27857;SDS011;16852;51.446;6.528;2024-02-14T04:40:25;4.53;;;2.05;;
27857;SDS011;16852;51.446;6.528;2024-02-14T04:42:25;3.55;;;1.73;;
27857;SDS011;16852;51.446;6.528;2024-02-14T04:44:26;4.30;;;1.83;;
27857;SDS011;16852;51.446;6.528;2024-02-14T04:46:26;3.35;;;1.60;;
27857;SDS011;16852;51.446;6.528;2024-02-14T04:48:27;3.15;;;1.83;;
27857;SDS011;16852;51.446;6.528;2024-02-14T04:50:27;4.32;;;1.92;;
27857;SDS011;16852;51.446;6.528;2024-02-14T04:52:30;2.72;;;1.92;;
27857;SDS011;16852;51.446;6.528;2024-02-14T04:54:30;3.65;;;2.00;;
27857;SDS011;16852;51.446;6.528;2024-02-14T04:56:31;4.28;;;1.50;;
27857;SDS011;16852;51.446;6.528;2024-02-14T04:58:32;2.65;;;1.90;;
27857;SDS011;16852;51.446;6.528;2024-02-14T05:00:33;6.57;;;1.90;;
27857;SDS011;16852;51.446;6.528;2024-02-14T05:02:33;2.10;;;1.58;;
27857;SDS011;16852;51.446;6.528;2024-02-14T05:04:34;2.70;;;1.70;;
27857;SDS011;16852;51.446;6.528;2024-02-14T05:06:37;1.88;;;1.55;;
27857;SDS011;16852;51.446;6.528;2024-02-14T05:08:38;3.70;;;1.80;;
27857;SDS011;16852;51.446;6.528;2024-02-14T05:10:39;4.82;;;1.80;;
27857;SDS011;16852;51.446;6.528;2024-02-14T05:12:40;2.55;;;1.60;;
27857;SDS011;16852;51.446;6.528;2024-02-14T05:14:40;3.85;;;2.33;;
27857;SDS011;16852;51.446;6.528;2024-02-14T05:16:41;4.40;;;1.83;;
27857;SDS011;16852;51.446;6.528;2024-02-14T05:18:42;4.22;;;1.75;;
27857;SDS011;16852;51.446;6.528;2024-02-14T05:20:42;3.72;;;1.60;;
27857;SDS011;16852;51.446;6.528;2024-02-14T05:22:43;3.65;;;1.88;;
27857;SDS011;16852;51.446;6.528;2024-02-14T05:24:44;2.95;;;1.58;;
27857;SDS011;16852;51.446;6.528;2024-02-14T05:26:44;2.90;;;1.73;;
27857;SDS011;16852;51.446;6.528;2024-02-14T05:28:45;5.38;;;1.80;;
27857;SDS011;16852;51.446;6.528;2024-02-14T05:30:46;3.05;;;1.58;;
27857;SDS011;16852;51.446;6.528;2024-02-14T05:32:46;3.25;;;1.70;;
27857;SDS011;16852;51.446;6.528;2024-02-14T05:34:47;3.95;;;1.85;;
27857;SDS011;16852;51.446;6.528;2024-02-14T05:36:48;5.63;;;2.20;;
27857;SDS011;16852;51.446;6.528;2024-02-14T05:38:48;3.28;;;2.10;;
27857;SDS011;16852;51.446;6.528;2024-02-14T05:40:49;4.38;;;2.17;;
27857;SDS011;16852;51.446;6.528;2024-02-14T05:42:50;2.17;;;1.63;;
27857;SDS011;16852;51.446;6.528;2024-02-14T05:44:50;2.58;;;1.75;;
27857;SDS011;16852;51.446;6.528;2024-02-14T05:46:52;2.20;;;2.00;;
27857;SDS011;16852;51.446;6.528;2024-02-14T05:48:52;5.45;;;1.90;;
27857;SDS011;16852;51.446;6.528;2024-02-14T05:50:53;3.30;;;1.90;;
27857;SDS011;16852;51.446;6.528;2024-02-14T05:52:54;2.50;;;1.60;;
27857;SDS011;16852;51.446;6.528;2024-02-14T05:54:55;5.05;;;2.15;;
27857;SDS011;16852;51.446;6.528;2024-02-14T05:56:56;4.47;;;1.90;;
27857;SDS011;16852;51.446;6.528;2024-02-14T05:58:57;3.95;;;2.03;;
27857;SDS011;16852;51.446;6.528;2024-02-14T06:00:58;3.90;;;2.28;;
27857;SDS011;16852;51.446;6.528;2024-02-14T06:02:58;3.10;;;1.90;;
27857;SDS011;16852;51.446;6.528;2024-02-14T06:04:59;4.00;;;2.30;;
27857;SDS011;16852;51.446;6.528;2024-02-14T06:07:00;3.63;;;2.25;;
27857;SDS011;16852;51.446;6.528;2024-02-14T06:09:00;4.18;;;2.10;;
27857;SDS011;16852;51.446;6.528;2024-02-14T06:11:01;3.33;;;2.08;;
27857;SDS011;16852;51.446;6.528;2024-02-14T06:13:01;4.85;;;2.15;;
27857;SDS011;16852;51.446;6.528;2024-02-14T06:15:02;3.20;;;2.10;;
27857;SDS011;16852;51.446;6.528;2024-02-14T06:17:03;5.63;;;2.13;;
27857;SDS011;16852;51.446;6.528;2024-02-14T06:19:04;4.13;;;2.30;;
27857;SDS011;16852;51.446;6.528;2024-02-14T06:21:06;5.38;;;2.40;;
27857;SDS011;16852;51.446;6.528;2024-02-14T06:23:06;4.38;;;2.25;;
27857;SDS011;16852;51.446;6.528;2024-02-14T06:25:07;3.60;;;2.13;;
27857;SDS011;16852;51.446;6.528;2024-02-14T06:27:08;3.08;;;2.03;;
27857;SDS011;16852;51.446;6.528;2024-02-14T06:29:09;3.13;;;1.90;;
27857;SDS011;16852;51.446;6.528;2024-02-14T06:31:09;2.28;;;1.67;;
27857;SDS011;16852;51.446;6.528;2024-02-14T06:33:10;5.53;;;2.90;;
27857;SDS011;16852;51.446;6.528;2024-02-14T06:35:11;4.38;;;2.08;;
27857;SDS011;16852;51.446;6.528;2024-02-14T06:37:11;3.97;;;2.55;;
27857;SDS011;16852;51.446;6.528;2024-02-14T06:39:12;3.08;;;2.10;;
27857;SDS011;16852;51.446;6.528;2024-02-14T06:41:13;2.95;;;1.83;;
27857;SDS011;16852;51.446;6.528;2024-02-14T06:43:13;2.47;;;1.90;;
27857;SDS011;16852;51.446;6.528;2024-02-14T06:45:14;3.22;;;1.65;;
27857;SDS011;16852;51.446;6.528;2024-02-14T06:47:14;5.78;;;2.65;;
27857;SDS011;16852;51.446;6.528;2024-02-14T06:49:15;5.90;;;2.28;;
27857;SDS011;16852;51.446;6.528;2024-02-14T06:51:17;3.17;;;2.00;;
27857;SDS011;16852;51.446;6.528;2024-02-14T06:53:17;3.78;;;2.47;;
27857;SDS011;16852;51.446;6.528;2024-02-14T06:55:18;3.22;;;2.30;;
27857;SDS011;16852;51.446;6.528;2024-02-14T06:57:19;3.00;;;2.17;;
27857;SDS011;16852;51.446;6.528;2024-02-14T06:59:19;2.13;;;1.90;;
27857;SDS011;16852;51.446;6.528;2024-02-14T07:01:20;3.35;;;2.30;;
27857;SDS011;16852;51.446;6.528;2024-02-14T07:03:23;3.63;;;2.30;;
27857;SDS011;16852;51.446;6.528;2024-02-14T07:05:24;3.80;;;2.42;;
27857;SDS011;16852;51.446;6.528;2024-02-14T07:07:26;6.38;;;2.58;;
27857;SDS011;16852;51.446;6.528;2024-02-14T07:09:27;3.88;;;2.10;;
27857;SDS011;16852;51.446;6.528;2024-02-14T07:11:29;4.35;;;2.65;;
27857;SDS011;16852;51.446;6.528;2024-02-14T07:13:29;3.38;;;2.13;;
27857;SDS011;16852;51.446;6.528;2024-02-14T07:15:30;4.60;;;2.38;;
27857;SDS011;16852;51.446;6.528;2024-02-14T07:17:30;4.68;;;2.60;;
27857;SDS011;16852;51.446;6.528;2024-02-14T07:19:31;4.55;;;2.40;;
27857;SDS011;16852;51.446;6.528;2024-02-14T07:21:32;2.70;;;2.13;;
27857;SDS011;16852;51.446;6.528;2024-02-14T07:23:33;4.68;;;2.33;;
27857;SDS011;16852;51.446;6.528;2024-02-14T07:25:36;3.08;;;2.28;;
27857;SDS011;16852;51.446;6.528;2024-02-14T07:27:37;3.97;;;2.67;;
27857;SDS011;16852;51.446;6.528;2024-02-14T07:29:37;4.35;;;2.22;;
27857;SDS011;16852;51.446;6.528;2024-02-14T07:31:38;4.28;;;2.67;;
27857;SDS011;16852;51.446;6.528;2024-02-14T07:33:38;5.55;;;2.50;;
27857;SDS011;16852;51.446;6.528;2024-02-14T07:35:39;4.15;;;2.42;;
27857;SDS011;16852;51.446;6.528;2024-02-14T07:37:40;3.72;;;2.30;;
27857;SDS011;16852;51.446;6.528;2024-02-14T07:39:42;5.60;;;2.78;;
27857;SDS011;16852;51.446;6.528;2024-02-14T07:41:42;5.72;;;2.63;;
27857;SDS011;16852;51.446;6.528;2024-02-14T07:43:43;5.55;;;2.80;;
27857;SDS011;16852;51.446;6.528;2024-02-14T07:45:44;4.32;;;2.70;;
27857;SDS011;16852;51.446;6.528;2024-02-14T07:47:44;3.85;;;2.30;;
27857;SDS011;16852;51.446;6.528;2024-02-14T07:49:45;4.85;;;2.75;;
27857;SDS011;16852;51.446;6.528;2024-02-14T07:51:46;5.47;;;2.65;;
27857;SDS011;16852;51.446;6.528;2024-02-14T07:53:47;2.60;;;1.95;;
27857;SDS011;16852;51.446;6.528;2024-02-14T07:55:49;3.60;;;2.40;;
27857;SDS011;16852;51.446;6.528;2024-02-14T07:57:50;6.43;;;2.97;;
27857;SDS011;16852;51.446;6.528;2024-02-14T07:59:50;6.43;;;2.40;;
27857;SDS011;16852;51.446;6.528;2024-02-14T08:01:51;3.63;;;2.38;;
27857;SDS011;16852;51.446;6.528;2024-02-14T08:03:52;3.13;;;1.98;;
27857;SDS011;16852;51.446;6.528;2024-02-14T08:05:52;3.83;;;2.60;;
27857;SDS011;16852;51.446;6.528;2024-02-14T08:07:53;4.53;;;2.17;;
27857;SDS011;16852;51.446;6.528;2024-02-14T08:09:54;4.18;;;2.78;;
27857;SDS011;16852;51.446;6.528;2024-02-14T08:11:55;4.55;;;2.70;;
27857;SDS011;16852;51.446;6.528;2024-02-14T08:13:56;3.20;;;2.15;;
27857;SDS011;16852;51.446;6.528;2024-02-14T08:15:56;4.90;;;2.28;;
27857;SDS011;16852;51.446;6.528;2024-02-14T08:17:58;5.40;;;2.47;;
27857;SDS011;16852;51.446;6.528;2024-02-14T08:19:59;5.93;;;2.65;;
27857;SDS011;16852;51.446;6.528;2024-02-14T08:22:00;8.85;;;2.45;;
27857;SDS011;16852;51.446;6.528;2024-02-14T08:24:01;3.60;;;2.10;;
27857;SDS011;16852;51.446;6.528;2024-02-14T08:26:02;4.53;;;2.67;;
27857;SDS011;16852;51.446;6.528;2024-02-14T08:28:05;4.15;;;2.50;;
27857;SDS011;16852;51.446;6.528;2024-02-14T08:30:07;2.88;;;2.13;;
27857;SDS011;16852;51.446;6.528;2024-02-14T08:32:08;4.53;;;2.22;;
27857;SDS011;16852;51.446;6.528;2024-02-14T08:34:09;6.60;;;2.63;;
27857;SDS011;16852;51.446;6.528;2024-02-14T08:36:10;3.97;;;2.22;;
27857;SDS011;16852;51.446;6.528;2024-02-14T08:38:10;5.18;;;2.47;;
27857;SDS011;16852;51.446;6.528;2024-02-14T08:40:11;4.35;;;2.35;;
27857;SDS011;16852;51.446;6.528;2024-02-14T08:42:12;4.03;;;2.33;;
27857;SDS011;16852;51.446;6.528;2024-02-14T08:44:13;7.00;;;2.80;;
27857;SDS011;16852;51.446;6.528;2024-02-14T08:46:13;4.07;;;2.17;;
27857;SDS011;16852;51.446;6.528;2024-02-14T08:48:14;4.43;;;2.47;;
27857;SDS011;16852;51.446;6.528;2024-02-14T08:50:15;5.72;;;2.20;;
27857;SDS011;16852;51.446;6.528;2024-02-14T08:52:16;3.85;;;2.22;;
27857;SDS011;16852;51.446;6.528;2024-02-14T08:54:17;5.00;;;2.50;;
27857;SDS011;16852;51.446;6.528;2024-02-14T08:56:17;8.15;;;2.67;;
27857;SDS011;16852;51.446;6.528;2024-02-14T08:58:18;3.92;;;2.10;;
27857;SDS011;16852;51.446;6.528;2024-02-14T09:00:19;4.95;;;1.90;;
27857;SDS011;16852;51.446;6.528;2024-02-14T09:02:19;4.47;;;2.00;;
27857;SDS011;16852;51.446;6.528;2024-02-14T09:04:22;3.53;;;2.13;;
27857;SDS011;16852;51.446;6.528;2024-02-14T09:06:23;3.63;;;2.00;;
27857;SDS011;16852;51.446;6.528;2024-02-14T09:08:24;3.80;;;1.95;;
27857;SDS011;16852;51.446;6.528;2024-02-14T09:10:24;3.88;;;2.00;;
27857;SDS011;16852;51.446;6.528;2024-02-14T09:12:25;6.65;;;2.03;;
27857;SDS011;16852;51.446;6.528;2024-02-14T09:14:25;6.53;;;2.70;;
27857;SDS011;16852;51.446;6.528;2024-02-14T09:16:26;4.63;;;1.98;;
27857;SDS011;16852;51.446;6.528;2024-02-14T09:18:27;5.53;;;2.13;;
27857;SDS011;16852;51.446;6.528;2024-02-14T09:20:28;5.70;;;2.10;;
27857;SDS011;16852;51.446;6.528;2024-02-14T09:22:29;2.90;;;2.03;;
27857;SDS011;16852;51.446;6.528;2024-02-14T09:24:30;6.68;;;2.55;;
27857;SDS011;16852;51.446;6.528;2024-02-14T09:26:31;3.10;;;1.80;;
27857;SDS011;16852;51.446;6.528;2024-02-14T09:28:32;2.45;;;2.10;;
27857;SDS011;16852;51.446;6.528;2024-02-14T09:30:34;3.30;;;2.00;;
27857;SDS011;16852;51.446;6.528;2024-02-14T09:32:35;3.75;;;2.10;;
27857;SDS011;16852;51.446;6.528;2024-02-14T09:34:36;4.13;;;2.08;;
27857;SDS011;16852;51.446;6.528;2024-02-14T09:36:37;3.88;;;2.28;;
27857;SDS011;16852;51.446;6.528;2024-02-14T09:38:39;4.93;;;2.33;;
27857;SDS011;16852;51.446;6.528;2024-02-14T09:40:40;5.55;;;2.15;;
27857;SDS011;16852;51.446;6.528;2024-02-14T09:42:44;3.00;;;1.45;;
27857;SDS011;16852;51.446;6.528;2024-02-14T09:45:01;3.58;;;2.30;;
27857;SDS011;16852;51.446;6.528;2024-02-14T09:47:02;7.75;;;2.58;;
27857;SDS011;16852;51.446;6.528;2024-02-14T09:49:05;3.15;;;1.80;;
27857;SDS011;16852;51.446;6.528;2024-02-14T09:51:07;3.90;;;1.92;;
27857;SDS011;16852;51.446;6.528;2024-02-14T09:53:08;3.22;;;1.65;;
27857;SDS011;16852;51.446;6.528;2024-02-14T09:55:10;5.90;;;1.95;;
27857;SDS011;16852;51.446;6.528;2024-02-14T09:57:12;5.53;;;2.05;;
27857;SDS011;16852;51.446;6.528;2024-02-14T09:59:16;3.97;;;1.77;;
27857;SDS011;16852;51.446;6.528;2024-02-14T10:01:17;4.90;;;2.00;;
27857;SDS011;16852;51.446;6.528;2024-02-14T10:03:20;5.45;;;1.83;;
27857;SDS011;16852;51.446;6.528;2024-02-14T10:05:21;2.72;;;1.80;;
27857;SDS011;16852;51.446;6.528;2024-02-14T10:07:22;5.47;;;2.30;;
27857;SDS011;16852;51.446;6.528;2024-02-14T10:09:23;3.60;;;1.60;;
27857;SDS011;16852;51.446;6.528;2024-02-14T10:11:25;2.53;;;1.52;;
27857;SDS011;16852;51.446;6.528;2024-02-14T10:13:27;4.43;;;1.93;;
27857;SDS011;16852;51.446;6.528;2024-02-14T10:15:28;4.75;;;1.80;;
27857;SDS011;16852;51.446;6.528;2024-02-14T10:17:32;7.77;;;2.40;;
27857;SDS011;16852;51.446;6.528;2024-02-14T10:19:33;4.05;;;2.13;;
27857;SDS011;16852;51.446;6.528;2024-02-14T10:21:34;4.75;;;1.83;;
27857;SDS011;16852;51.446;6.528;2024-02-14T10:23:34;3.78;;;1.92;;
27857;SDS011;16852;51.446;6.528;2024-02-14T10:25:35;4.45;;;1.65;;
27857;SDS011;16852;51.446;6.528;2024-02-14T10:27:36;4.68;;;1.90;;
27857;SDS011;16852;51.446;6.528;2024-02-14T10:29:38;2.83;;;1.60;;
27857;SDS011;16852;51.446;6.528;2024-02-14T10:31:39;4.18;;;1.80;;
27857;SDS011;16852;51.446;6.528;2024-02-14T10:33:41;5.85;;;1.80;;
27857;SDS011;16852;51.446;6.528;2024-02-14T10:35:41;7.13;;;1.80;;
27857;SDS011;16852;51.446;6.528;2024-02-14T10:37:42;4.13;;;1.58;;
27857;SDS011;16852;51.446;6.528;2024-02-14T10:39:46;4.72;;;1.92;;
27857;SDS011;16852;51.446;6.528;2024-02-14T10:41:48;4.22;;;1.73;;
27857;SDS011;16852;51.446;6.528;2024-02-14T10:43:50;7.00;;;2.10;;
27857;SDS011;16852;51.446;6.528;2024-02-14T10:45:51;6.90;;;1.98;;
27857;SDS011;16852;51.446;6.528;2024-02-14T10:47:54;3.67;;;1.75;;
27857;SDS011;16852;51.446;6.528;2024-02-14T10:50:04;4.50;;;1.70;;
27857;SDS011;16852;51.446;6.528;2024-02-14T10:52:06;4.80;;;1.50;;
27857;SDS011;16852;51.446;6.528;2024-02-14T10:54:10;4.38;;;1.75;;
27857;SDS011;16852;51.446;6.528;2024-02-14T10:58:18;3.55;;;1.65;;
27857;SDS011;16852;51.446;6.528;2024-02-14T11:00:19;2.30;;;1.60;;
27857;SDS011;16852;51.446;6.528;2024-02-14T11:02:20;2.75;;;1.80;;
27857;SDS011;16852;51.446;6.528;2024-02-14T11:04:23;3.17;;;1.33;;
27857;SDS011;16852;51.446;6.528;2024-02-14T11:06:24;3.10;;;1.50;;
27857;SDS011;16852;51.446;6.528;2024-02-14T11:08:25;4.50;;;1.88;;
27857;SDS011;16852;51.446;6.528;2024-02-14T11:10:25;2.72;;;1.58;;
27857;SDS011;16852;51.446;6.528;2024-02-14T11:12:31;2.58;;;1.45;;
27857;SDS011;16852;51.446;6.528;2024-02-14T11:14:34;2.75;;;1.40;;
27857;SDS011;16852;51.446;6.528;2024-02-14T11:16:44;3.83;;;1.60;;
27857;SDS011;16852;51.446;6.528;2024-02-14T11:18:45;4.45;;;1.88;;
27857;SDS011;16852;51.446;6.528;2024-02-14T11:20:46;5.53;;;2.03;;
27857;SDS011;16852;51.446;6.528;2024-02-14T11:22:55;8.57;;;1.70;;
27857;SDS011;16852;51.446;6.528;2024-02-14T11:24:57;2.97;;;1.48;;
27857;SDS011;16852;51.446;6.528;2024-02-14T11:26:58;1.45;;;1.13;;
27857;SDS011;16852;51.446;6.528;2024-02-14T11:29:01;2.42;;;1.20;;
27857;SDS011;16852;51.446;6.528;2024-02-14T11:31:04;2.53;;;1.27;;
27857;SDS011;16852;51.446;6.528;2024-02-14T11:33:22;3.45;;;1.08;;
27857;SDS011;16852;51.446;6.528;2024-02-14T11:35:23;4.38;;;1.98;;
27857;SDS011;16852;51.446;6.528;2024-02-14T11:37:29;5.30;;;1.73;;
27857;SDS011;16852;51.446;6.528;2024-02-14T11:39:32;3.05;;;1.58;;
27857;SDS011;16852;51.446;6.528;2024-02-14T11:41:33;2.00;;;1.30;;
27857;SDS011;16852;51.446;6.528;2024-02-14T11:43:35;1.98;;;1.25;;
27857;SDS011;16852;51.446;6.528;2024-02-14T11:45:35;3.42;;;1.30;;
27857;SDS011;16852;51.446;6.528;2024-02-14T11:47:39;2.30;;;1.45;;
27857;SDS011;16852;51.446;6.528;2024-02-14T11:49:40;1.00;;;0.90;;
27857;SDS011;16852;51.446;6.528;2024-02-14T11:51:40;3.17;;;1.23;;
27857;SDS011;16852;51.446;6.528;2024-02-14T11:53:41;3.40;;;1.63;;
27857;SDS011;16852;51.446;6.528;2024-02-14T11:55:42;4.28;;;1.60;;
27857;SDS011;16852;51.446;6.528;2024-02-14T11:57:43;3.03;;;1.35;;
27857;SDS011;16852;51.446;6.528;2024-02-14T11:59:43;2.30;;;1.05;;
27857;SDS011;16852;51.446;6.528;2024-02-14T12:01:46;2.15;;;1.10;;
27857;SDS011;16852;51.446;6.528;2024-02-14T12:03:48;3.53;;;1.00;;
27857;SDS011;16852;51.446;6.528;2024-02-14T12:05:50;2.67;;;1.10;;
27857;SDS011;16852;51.446;6.528;2024-02-14T12:07:52;1.55;;;1.00;;
27857;SDS011;16852;51.446;6.528;2024-02-14T12:09:54;1.95;;;1.00;;
27857;SDS011;16852;51.446;6.528;2024-02-14T12:11:55;4.68;;;1.48;;
27857;SDS011;16852;51.446;6.528;2024-02-14T12:13:57;1.52;;;0.98;;
27857;SDS011;16852;51.446;6.528;2024-02-14T12:16:00;2.20;;;1.13;;